Time;durP1;ratioP1;P1;durP2;ratioP2;P2;SDS_P1;SDS_P2;PMS_P1;PMS_P2;Temp;Humidity;BMP_temperature;BMP_pressure;BME280_temperature;BME280_humidity;BME280_pressure;Samples;Min_cycle;Max_cycle;Signal;HPM_P1;HPM_P2
2023/04/05 00:00:52;;;;;;;;;;;;;;;20.58;34.41;102520.41;4966723;28;19915;-72
2023/04/05 00:03:18;;;;;;;;;;;;;;;20.56;34.37;102510.72;4958922;28;19945;-71
2023/04/05 00:05:44;;;;;;;;;;;;;;;20.55;34.49;102506.31;4970233;28;19925;-71
2023/04/05 00:08:17;;;;;;;;;;;;;;;20.53;34.68;102513.72;4961231;28;19914;-71
2023/04/05 00:10:42;;;;;;;;;;;;;;;20.50;34.53;102504.03;4973873;28;19918;-71
2023/04/05 00:13:07;;;;;;;;;;;;;;;20.49;34.54;102512.31;4965823;28;19915;-71
2023/04/05 00:15:32;;;;;;;;;;;;;;;20.47;34.73;102513.28;4968775;28;19910;-71
2023/04/05 00:17:59;;;;;;;;;;;;;;;20.46;34.69;102507.97;4960873;28;19949;-72
2023/04/05 00:20:24;;;;;;;;;;;;;;;20.43;34.54;102495.63;4972176;28;19918;-71
2023/04/05 00:22:52;;;;;;;;;;;;;;;20.42;34.63;102496.59;4961696;28;19915;-72
2023/04/05 00:25:17;;;;;;;;;;;;;;;20.39;34.51;102499.59;4967280;28;19941;-71
2023/04/05 00:27:43;;;;;;;;;;;;;;;20.37;34.68;102493.47;4972587;28;19910;-72
2023/04/05 00:30:08;;;;;;;;;;;;;;;20.35;34.58;102487.38;4961010;28;19910;-71
2023/04/05 00:32:33;;;;;;;;;;;;;;;20.33;34.58;102492.03;4976766;28;19937;-71
2023/04/05 00:34:58;;;;;;;;;;;;;;;20.33;34.52;102500.13;4965106;28;19917;-71
2023/04/05 00:37:24;;;;;;;;;;;;;;;20.30;34.71;102489.59;4968528;28;19958;-71
2023/04/05 00:39:49;;;;;;;;;;;;;;;20.29;34.80;102493.31;4971243;28;19915;-71
2023/04/05 00:42:14;;;;;;;;;;;;;;;20.27;34.86;102494.47;4970487;28;19914;-71
2023/04/05 00:44:39;;;;;;;;;;;;;;;20.26;34.82;102487.31;4961758;28;19974;-72
2023/04/05 00:47:07;;;;;;;;;;;;;;;20.23;34.74;102480.38;4969998;28;19914;-72
2023/04/05 00:49:33;;;;;;;;;;;;;;;20.21;34.84;102476.94;4967867;28;19917;-72
2023/04/05 00:51:59;;;;;;;;;;;;;;;20.19;34.82;102479.78;4964840;28;19910;-72
2023/04/05 00:54:24;;;;;;;;;;;;;;;20.17;34.57;102483.63;4975711;28;20086;-72
2023/04/05 00:56:51;;;;;;;;;;;;;;;20.16;34.65;102471.13;4960520;28;19910;-71
2023/04/05 00:59:17;;;;;;;;;;;;;;;20.15;34.71;102481.06;4974297;28;19991;-72
2023/04/05 01:01:42;;;;;;;;;;;;;;;20.13;34.76;102474.09;4967802;28;19911;-71
2023/04/05 01:04:07;;;;;;;;;;;;;;;20.10;34.87;102472.53;4965041;28;19941;-72
2023/04/05 01:06:43;;;;;;;;;;;;;;;20.09;34.68;102473.53;4971303;28;19910;-72
2023/04/05 01:09:17;;;;;;;;;;;;;;;20.06;34.96;102476.50;4972194;28;19910;-72
2023/04/05 01:11:42;;;;;;;;;;;;;;;20.06;34.76;102475.66;4962579;28;19915;-72
2023/04/05 01:14:07;;;;;;;;;;;;;;;20.03;34.96;102478.63;4971084;28;19911;-72
2023/04/05 01:16:32;;;;;;;;;;;;;;;20.01;34.97;102467.09;4970375;28;19911;-72
2023/04/05 01:18:58;;;;;;;;;;;;;;;19.98;34.96;102469.09;4960558;28;19921;-71
2023/04/05 01:21:38;;;;;;;;;;;;;;;19.97;34.95;102461.97;4973698;28;19918;-72
2023/04/05 01:24:27;;;;;;;;;;;;;;;19.95;35.05;102463.09;4963237;28;19910;-72
2023/04/05 01:26:56;;;;;;;;;;;;;;;19.93;34.92;102455.16;4969811;28;19965;-72
2023/04/05 01:29:45;;;;;;;;;;;;;;;19.92;35.10;102461.56;4961905;28;19934;-72
2023/04/05 01:32:14;;;;;;;;;;;;;;;19.90;35.08;102458.13;4966155;28;19914;-72
2023/04/05 01:34:42;;;;;;;;;;;;;;;19.88;35.05;102462.81;4969029;28;19910;-71
2023/04/05 01:37:10;;;;;;;;;;;;;;;19.87;34.97;102457.53;4967313;28;20021;-72
2023/04/05 01:39:36;;;;;;;;;;;;;;;19.84;34.97;102458.69;4965694;28;20004;-72
2023/04/05 01:42:01;;;;;;;;;;;;;;;19.84;35.10;102453.28;4970302;28;19911;-72
2023/04/05 01:44:27;;;;;;;;;;;;;;;19.82;35.11;102465.19;4964687;28;19926;-72
2023/04/05 01:46:52;;;;;;;;;;;;;;;19.80;34.93;102448.31;4966883;28;20287;-72
2023/04/05 01:49:17;;;;;;;;;;;;;;;19.79;34.98;102452.81;4972049;28;19961;-72
2023/04/05 01:51:42;;;;;;;;;;;;;;;19.76;35.17;102438.78;4957389;28;19910;-72
2023/04/05 01:54:08;;;;;;;;;;;;;;;19.75;35.13;102447.84;4974962;28;19976;-72
2023/04/05 01:56:33;;;;;;;;;;;;;;;19.73;35.11;102442.59;4964078;28;19917;-72
2023/04/05 01:58:58;;;;;;;;;;;;;;;19.70;35.18;102443.69;4964599;28;19911;-71
2023/04/05 02:01:23;;;;;;;;;;;;;;;19.70;35.03;102445.53;4970494;28;19917;-72
2023/04/05 02:03:49;;;;;;;;;;;;;;;19.67;35.13;102446.69;4965291;28;20403;-72
2023/04/05 02:06:14;;;;;;;;;;;;;;;19.66;35.14;102442.25;4964357;28;19914;-72
2023/04/05 02:08:39;;;;;;;;;;;;;;;18.62;35.25;102267.22;4968946;28;19910;-72
2023/04/05 02:11:04;;;;;;;;;;;;;;;19.63;35.15;102436.31;4967972;28;19910;-72
2023/04/05 02:13:29;;;;;;;;;;;;;;;19.61;35.20;102431.03;4959561;28;19995;-72
2023/04/05 02:15:55;;;;;;;;;;;;;;;19.60;35.15;102429.28;4975396;28;19914;-72
2023/04/05 02:18:28;;;;;;;;;;;;;;;19.58;35.15;102422.31;4961243;28;19910;-72
2023/04/05 02:21:00;;;;;;;;;;;;;;;19.56;35.22;102421.63;4971986;28;19938;-71
2023/04/05 02:23:26;;;;;;;;;;;;;;;19.54;35.31;102416.38;4967074;28;19938;-71
2023/04/05 02:25:51;;;;;;;;;;;;;;;19.53;35.04;102425.41;4960688;28;19922;-70
2023/04/05 02:28:17;;;;;;;;;;;;;;;19.51;35.21;102427.41;4969259;28;19914;-68
2023/04/05 02:30:42;;;;;;;;;;;;;;;19.50;35.08;102428.41;4963151;28;19910;-72
2023/04/05 02:33:09;;;;;;;;;;;;;;;19.48;35.33;102427.69;4965954;28;19956;-72
2023/04/05 02:35:34;;;;;;;;;;;;;;;19.46;35.26;102422.44;4963924;28;19910;-72
2023/04/05 02:38:00;;;;;;;;;;;;;;;19.43;35.04;102417.31;4969781;28;19968;-72
2023/04/05 02:40:26;;;;;;;;;;;;;;;19.43;35.12;102421.84;4960115;28;19914;-72
2023/04/05 02:42:51;;;;;;;;;;;;;;;19.41;35.12;102429.19;4972647;28;19910;-72
2023/04/05 02:45:16;;;;;;;;;;;;;;;19.39;35.00;102423.97;4961791;28;19919;-71
2023/04/05 02:47:41;;;;;;;;;;;;;;;19.38;35.18;102424.09;4966802;28;19963;-72
2023/04/05 02:50:06;;;;;;;;;;;;;;;19.36;35.20;102423.38;4969482;28;19925;-72
2023/04/05 02:52:33;;;;;;;;;;;;;;;19.35;35.22;102418.97;4955075;28;19918;-72
2023/04/05 02:54:58;;;;;;;;;;;;;;;19.34;34.99;102422.66;4974520;28;19910;-71
2023/04/05 02:57:23;;;;;;;;;;;;;;;19.33;35.24;102418.25;4959267;28;19969;-72
2023/04/05 02:59:48;;;;;;;;;;;;;;;19.33;35.06;102413.72;4965145;28;19911;-72
2023/04/05 03:02:13;;;;;;;;;;;;;;;19.32;35.26;102406.59;4967963;28;19919;-71
2023/04/05 03:04:39;;;;;;;;;;;;;;;19.32;35.39;102403.91;4966883;28;19922;-71
2023/04/05 03:07:05;;;;;;;;;;;;;;;19.31;35.23;102396.81;4962014;28;20595;-72
2023/04/05 03:09:33;;;;;;;;;;;;;;;19.32;35.10;102411.13;4968712;28;19978;-72
2023/04/05 03:12:02;;;;;;;;;;;;;;;19.31;35.20;102404.91;4964269;28;19910;-71
2023/04/05 03:14:28;;;;;;;;;;;;;;;19.31;34.90;102398.66;4960685;28;19921;-72
2023/04/05 03:16:53;;;;;;;;;;;;;;;19.31;34.81;102401.34;4964163;28;19914;-72
2023/04/05 03:19:21;;;;;;;;;;;;;;;19.31;35.09;102402.19;4956868;28;19911;-72
2023/04/05 03:21:46;;;;;;;;;;;;;;;19.32;34.94;102400.34;4971512;28;20210;-72
2023/04/05 03:24:11;;;;;;;;;;;;;;;19.32;34.95;102395.81;4963703;28;19918;-71
2023/04/05 03:26:36;;;;;;;;;;;;;;;19.33;34.75;102391.28;4962689;28;19915;-72
2023/04/05 03:29:01;;;;;;;;;;;;;;;19.33;34.75;102394.00;4967591;28;19910;-68
2023/04/05 03:31:29;;;;;;;;;;;;;;;19.32;35.04;102390.41;4964323;28;19922;-71
2023/04/05 03:33:54;;;;;;;;;;;;;;;19.34;34.93;102387.59;4959895;28;19938;-72
2023/04/05 03:36:20;;;;;;;;;;;;;;;19.33;34.75;102388.59;4967759;28;19925;-71
2023/04/05 03:38:45;;;;;;;;;;;;;;;19.33;34.84;102396.69;4967831;28;19910;-72
2023/04/05 03:41:10;;;;;;;;;;;;;;;19.33;34.89;102389.44;4958665;28;19915;-71
2023/04/05 03:43:36;;;;;;;;;;;;;;;19.35;34.74;102392.84;4974860;28;19918;-71
2023/04/05 03:46:01;;;;;;;;;;;;;;;19.35;34.84;102383.91;4963283;28;19927;-71
2023/04/05 03:48:27;;;;;;;;;;;;;;;19.37;34.83;102387.31;4969653;28;19922;-70
2023/04/05 03:50:52;;;;;;;;;;;;;;;19.35;34.64;102384.75;4967496;28;19997;-71
2023/04/05 03:53:17;;;;;;;;;;;;;;;19.37;34.69;102387.31;4963019;28;19961;-71
2023/04/05 03:55:48;;;;;;;;;;;;;;;19.38;34.80;102386.34;4967254;28;19921;-71
2023/04/05 03:58:13;;;;;;;;;;;;;;;19.38;34.66;102387.19;4966363;28;19920;-71
2023/04/05 04:00:38;;;;;;;;;;;;;;;19.40;34.74;102384.34;4962588;28;19981;-71
2023/04/05 04:03:03;;;;;;;;;;;;;;;19.40;34.91;102390.59;4965998;28;19920;-71
2023/04/05 04:05:28;;;;;;;;;;;;;;;19.41;34.70;102388.75;4969802;28;19915;-69
2023/04/05 04:07:54;;;;;;;;;;;;;;;19.41;34.52;102384.22;4955359;28;19915;-71
2023/04/05 04:10:19;;;;;;;;;;;;;;;19.41;34.59;102386.94;4975249;28;19979;-71
2023/04/05 04:12:45;;;;;;;;;;;;;;;19.41;34.58;102378.84;4962197;28;19911;-71
2023/04/05 04:15:10;;;;;;;;;;;;;;;19.43;34.70;102381.38;4966638;28;19917;-71
2023/04/05 04:17:36;;;;;;;;;;;;;;;19.44;34.51;102383.09;4967604;28;19914;-71
2023/04/05 04:20:06;;;;;;;;;;;;;;;19.45;34.43;102385.66;4960895;28;19915;-71
2023/04/05 04:22:32;;;;;;;;;;;;;;;19.45;34.59;102376.69;4968838;28;19914;-71
2023/04/05 04:25:01;;;;;;;;;;;;;;;19.46;34.45;102378.44;4963465;28;19929;-70
2023/04/05 04:27:28;;;;;;;;;;;;;;;19.47;34.42;102380.13;4965335;28;19914;-70
2023/04/05 04:30:00;;;;;;;;;;;;;;;19.47;34.36;102382.81;4963120;28;19915;-70
2023/04/05 04:32:25;;;;;;;;;;;;;;;19.47;34.31;102380.97;4970220;28;20283;-72
2023/04/05 04:34:53;;;;;;;;;;;;;;;19.49;34.37;102380.81;4959552;28;19915;-72
2023/04/05 04:37:21;;;;;;;;;;;;;;;19.51;34.48;102378.00;4973192;28;19922;-72
2023/04/05 04:39:47;;;;;;;;;;;;;;;19.52;34.60;102379.72;4963981;28;20009;-72
2023/04/05 04:42:12;;;;;;;;;;;;;;;19.54;34.74;102380.41;4960760;28;19921;-70
2023/04/05 04:44:41;;;;;;;;;;;;;;;19.55;35.11;102368.66;4970482;28;19981;-71
2023/04/05 04:47:12;;;;;;;;;;;;;;;19.56;34.68;102371.19;4960445;28;19910;-70
2023/04/05 04:49:37;;;;;;;;;;;;;;;19.59;34.89;102370.09;4968137;28;19925;-72
2023/04/05 04:52:02;;;;;;;;;;;;;;;19.62;34.85;102377.91;4965449;28;19985;-71
2023/04/05 04:54:27;;;;;;;;;;;;;;;19.65;35.14;102374.94;4967932;28;19925;-71
2023/04/05 04:56:52;;;;;;;;;;;;;;;19.67;35.00;102372.97;4966221;28;19935;-71
2023/04/05 04:59:18;;;;;;;;;;;;;;;19.68;34.99;102364.75;4968397;28;19942;-70
2023/04/05 05:01:46;;;;;;;;;;;;;;;19.71;35.12;102375.25;4958065;28;19965;-70
2023/04/05 05:04:11;;;;;;;;;;;;;;;19.74;35.20;102368.72;4957142;28;19918;-70
2023/04/05 05:06:37;;;;;;;;;;;;;;;19.78;35.18;102374.69;4965720;28;19914;-71
2023/04/05 05:09:02;;;;;;;;;;;;;;;19.80;34.98;102365.47;4956246;28;19910;-70
2023/04/05 05:11:27;;;;;;;;;;;;;;;19.81;34.88;102367.19;4976872;28;19941;-71
2023/04/05 05:13:53;;;;;;;;;;;;;;;19.84;34.84;102372.31;4970335;28;19935;-70
2023/04/05 05:16:20;;;;;;;;;;;;;;;19.86;34.90;102367.63;4969844;28;19910;-73
2023/04/05 05:18:47;;;;;;;;;;;;;;;19.87;34.86;102366.63;4968735;28;19985;-68
2023/04/05 05:21:12;;;;;;;;;;;;;;;19.90;35.04;102371.75;4968103;28;19916;-67
2023/04/05 05:23:37;;;;;;;;;;;;;;;19.92;34.91;102368.88;4972903;28;19916;-68
2023/04/05 05:26:02;;;;;;;;;;;;;;;19.93;34.86;102371.47;4969735;28;20367;-72
2023/04/05 05:28:28;;;;;;;;;;;;;;;19.96;34.64;102373.91;4964502;28;20451;-71
2023/04/05 05:30:53;;;;;;;;;;;;;;;19.97;34.75;102372.91;4968177;28;19993;-72
2023/04/05 05:33:18;;;;;;;;;;;;;;;20.00;34.65;102373.59;4966567;28;19914;-69
2023/04/05 05:35:46;;;;;;;;;;;;;;;20.02;34.83;102371.63;4956725;28;19918;-69
2023/04/05 05:38:12;;;;;;;;;;;;;;;20.05;34.85;102365.91;4979071;28;19910;-70
2023/04/05 05:40:37;;;;;;;;;;;;;;;20.06;34.76;102365.81;4964110;28;19974;-70
2023/04/05 05:43:03;;;;;;;;;;;;;;;20.09;34.83;102359.25;4967333;28;19917;-70
2023/04/05 05:45:28;;;;;;;;;;;;;;;20.10;34.65;102361.81;4973414;28;20332;-70
2023/04/05 05:47:53;;;;;;;;;;;;;;;20.12;34.75;102365.22;4964716;28;19910;-70
2023/04/05 05:50:19;;;;;;;;;;;;;;;20.13;34.41;102366.91;4971676;28;20374;-69
2023/04/05 05:52:44;;;;;;;;;;;;;;;20.15;34.52;102359.53;4967939;28;19921;-70
2023/04/05 05:55:09;;;;;;;;;;;;;;;20.17;34.47;102360.25;4968211;28;19913;-70
2023/04/05 05:57:35;;;;;;;;;;;;;;;20.19;34.47;102360.97;4963007;28;19911;-70
2023/04/05 06:00:00;;;;;;;;;;;;;;;20.21;34.32;102364.38;4972621;28;19938;-71
2023/04/05 06:02:26;;;;;;;;;;;;;;;20.21;34.21;102358.97;4967295;28;19989;-69
2023/04/05 06:04:51;;;;;;;;;;;;;;;20.25;34.19;102361.38;4971308;28;20352;-70
2023/04/05 06:07:16;;;;;;;;;;;;;;;20.27;34.08;102359.41;4969101;28;19919;-69
2023/04/05 06:09:44;;;;;;;;;;;;;;;20.28;34.07;102356.56;4968393;28;19934;-70
2023/04/05 06:12:09;;;;;;;;;;;;;;;20.31;34.05;102359.00;4974113;28;19910;-71
2023/04/05 06:14:34;;;;;;;;;;;;;;;20.33;34.07;102364.22;4968340;28;19938;-71
2023/04/05 06:16:59;;;;;;;;;;;;;;;20.35;34.15;102362.25;4970451;28;19910;-71
2023/04/05 06:19:25;;;;;;;;;;;;;;;20.36;33.83;102362.09;4968488;28;20683;-68
2023/04/05 06:21:50;;;;;;;;;;;;;;;20.39;33.93;102360.94;4968213;28;19911;-71
2023/04/05 06:24:15;;;;;;;;;;;;;;;20.40;33.63;102366.22;4965527;28;19921;-72
2023/04/05 06:26:40;;;;;;;;;;;;;;;20.42;33.89;102368.78;4972329;28;19937;-71
2023/04/05 06:29:05;;;;;;;;;;;;;;;20.43;33.86;102365.94;4969290;28;19914;-70
2023/04/05 06:31:31;;;;;;;;;;;;;;;20.45;33.79;102368.50;4969955;28;19914;-71
2023/04/05 06:33:56;;;;;;;;;;;;;;;20.46;33.85;102368.34;4965355;28;20363;-71
2023/04/05 06:36:22;;;;;;;;;;;;;;;20.47;33.89;102370.06;4965582;28;20387;-71
2023/04/05 06:38:47;;;;;;;;;;;;;;;20.50;33.91;102374.34;4973363;28;19918;-71
2023/04/05 06:41:12;;;;;;;;;;;;;;;20.51;33.52;102378.75;4966538;28;19941;-68
2023/04/05 06:43:37;;;;;;;;;;;;;;;20.53;33.47;102370.53;4967617;28;19933;-69
2023/04/05 06:46:02;;;;;;;;;;;;;;;20.54;33.42;102375.75;4968302;28;19920;-69
2023/04/05 06:48:28;;;;;;;;;;;;;;;20.56;33.48;102375.63;4968749;28;20048;-69
2023/04/05 06:50:57;;;;;;;;;;;;;;;20.58;33.31;102376.34;4967020;28;19914;-69
2023/04/05 06:53:22;;;;;;;;;;;;;;;20.59;33.72;102373.47;4969503;28;19910;-70
2023/04/05 06:55:48;;;;;;;;;;;;;;;20.61;33.60;102371.50;4966649;28;19915;-70
2023/04/05 06:58:13;;;;;;;;;;;;;;;20.62;33.62;102370.50;4962970;28;19974;-70
2023/04/05 07:00:38;;;;;;;;;;;;;;;20.64;33.38;102373.03;4973636;28;20008;-69
2023/04/05 07:03:03;;;;;;;;;;;;;;;20.66;33.28;102379.19;4964183;28;19921;-69
2023/04/05 07:05:28;;;;;;;;;;;;;;;20.69;33.45;102381.59;4969310;28;20268;-70
2023/04/05 07:07:53;;;;;;;;;;;;;;;20.70;33.17;102384.16;4966348;28;19956;-69
2023/04/05 07:10:19;;;;;;;;;;;;;;;20.73;33.39;102377.59;4967737;28;19910;-69
2023/04/05 07:12:44;;;;;;;;;;;;;;;20.75;33.20;102377.44;4969395;28;19915;-70
2023/04/05 07:15:10;;;;;;;;;;;;;;;20.76;33.35;102368.34;4966032;28;19956;-72
2023/04/05 07:17:35;;;;;;;;;;;;;;;20.78;33.06;102364.50;4963379;28;19921;-68
2023/04/05 07:20:00;;;;;;;;;;;;;;;20.80;33.03;102361.63;4967175;28;19914;-71
2023/04/05 07:22:26;;;;;;;;;;;;;;;20.80;32.78;102362.50;4969788;28;19914;-72
2023/04/05 07:24:51;;;;;;;;;;;;;;;20.83;33.14;102366.75;4962233;28;19918;-72
2023/04/05 07:27:17;;;;;;;;;;;;;;;20.84;33.10;102368.47;4973935;28;19938;-72
2023/04/05 07:29:42;;;;;;;;;;;;;;;20.86;32.94;102367.34;4962139;28;19950;-72
2023/04/05 07:32:08;;;;;;;;;;;;;;;20.87;32.77;102368.19;4965459;28;19920;-72
2023/04/05 07:34:33;;;;;;;;;;;;;;;20.88;32.80;102365.31;4968830;28;19942;-72
2023/04/05 07:36:59;;;;;;;;;;;;;;;20.90;32.83;102373.31;4958130;28;19957;-72
2023/04/05 07:39:24;;;;;;;;;;;;;;;20.90;32.67;102368.75;4969794;28;19968;-70
2023/04/05 07:41:50;;;;;;;;;;;;;;;20.93;32.59;102367.56;4962666;28;19915;-72
2023/04/05 07:44:15;;;;;;;;;;;;;;;20.95;32.81;102371.00;4964041;28;19941;-71
2023/04/05 07:46:43;;;;;;;;;;;;;;;20.95;32.58;102369.16;4968889;28;19914;-72
2023/04/05 07:49:08;;;;;;;;;;;;;;;20.97;32.80;102367.13;4967094;28;19910;-71
2023/04/05 07:51:36;;;;;;;;;;;;;;;21.01;32.78;102369.56;4960969;28;19922;-72
2023/04/05 07:54:01;;;;;;;;;;;;;;;21.03;32.47;102373.84;4970054;28;19914;-72
2023/04/05 07:56:27;;;;;;;;;;;;;;;21.05;32.62;102368.25;4966432;28;19961;-72
2023/04/05 07:58:53;;;;;;;;;;;;;;;21.06;32.38;102365.41;4961898;28;19920;-72
2023/04/05 08:01:18;;;;;;;;;;;;;;;21.09;32.38;102367.81;4972568;28;19926;-72
2023/04/05 08:03:44;;;;;;;;;;;;;;;21.10;32.61;102368.66;4958278;28;19914;-72
2023/04/05 08:06:13;;;;;;;;;;;;;;;21.12;32.37;102367.53;4971576;28;19922;-72
2023/04/05 08:08:38;;;;;;;;;;;;;;;21.14;32.26;102361.97;4964211;28;19915;-72
2023/04/05 08:11:04;;;;;;;;;;;;;;;21.17;32.44;102361.69;4964097;28;19962;-72
2023/04/05 08:13:29;;;;;;;;;;;;;;;21.18;32.52;102360.66;4966635;28;19917;-72
2023/04/05 08:15:55;;;;;;;;;;;;;;;21.20;32.33;102355.97;4965220;28;19914;-72
2023/04/05 08:18:20;;;;;;;;;;;;;;;21.23;32.19;102358.38;4959964;28;19915;-72
2023/04/05 08:20:49;;;;;;;;;;;;;;;21.24;32.14;102365.50;4967339;28;19914;-72
2023/04/05 08:23:14;;;;;;;;;;;;;;;21.27;32.19;102365.19;4962201;28;19930;-72
2023/04/05 08:25:40;;;;;;;;;;;;;;;21.30;32.30;102358.63;4956760;28;19999;-72
2023/04/05 08:28:05;;;;;;;;;;;;;;;21.33;32.22;102359.22;4972379;28;19921;-72
2023/04/05 08:30:30;;;;;;;;;;;;;;;21.36;31.93;102355.34;4959174;28;19914;-71
2023/04/05 08:32:55;;;;;;;;;;;;;;;21.38;32.37;102354.22;4965369;28;19922;-72
2023/04/05 08:35:20;;;;;;;;;;;;;;;21.41;32.26;102351.22;4967689;28;19978;-71
2023/04/05 08:37:47;;;;;;;;;;;;;;;21.43;31.97;102360.00;4960304;28;19923;-72
2023/04/05 08:40:12;;;;;;;;;;;;;;;21.46;32.04;102356.16;4967717;28;19921;-72
2023/04/05 08:42:56;;;;;;;;;;;;;;;21.49;32.09;102352.28;4965645;28;19937;-71
2023/04/05 08:45:21;;;;;;;;;;;;;;;21.51;31.64;102350.31;4962721;28;19950;-72
2023/04/05 08:47:46;;;;;;;;;;;;;;;21.54;31.70;102345.44;4968227;28;19925;-72
2023/04/05 08:50:12;;;;;;;;;;;;;;;21.56;31.92;102343.41;4975162;28;19914;-72
2023/04/05 08:52:37;;;;;;;;;;;;;;;21.59;31.88;102343.13;4970931;28;19970;-71
2023/04/05 08:55:04;;;;;;;;;;;;;;;21.61;32.02;102342.97;4979712;28;20331;-72
2023/04/05 08:57:29;;;;;;;;;;;;;;;21.63;31.86;102344.53;4965471;28;20323;-71
2023/04/05 08:59:54;;;;;;;;;;;;;;;21.66;31.84;102344.22;4974107;28;19914;-72
2023/04/05 09:02:21;;;;;;;;;;;;;;;21.69;31.90;102348.47;4976544;28;19915;-71
2023/04/05 09:04:46;;;;;;;;;;;;;;;21.73;31.88;102343.63;4959375;28;19915;-71
2023/04/05 09:07:14;;;;;;;;;;;;;;;21.75;31.77;102344.28;4973488;28;20061;-72
2023/04/05 09:09:41;;;;;;;;;;;;;;;21.78;31.78;102338.59;4970121;28;19921;-72
2023/04/05 09:12:06;;;;;;;;;;;;;;;21.80;31.83;102337.44;4968016;28;20363;-72
2023/04/05 09:14:32;;;;;;;;;;;;;;;21.83;31.48;102334.41;4968190;28;19973;-72
2023/04/05 09:16:57;;;;;;;;;;;;;;;21.88;31.46;102342.09;4969512;28;19970;-71
2023/04/05 09:19:22;;;;;;;;;;;;;;;21.91;31.68;102341.75;4963066;28;19918;-72
2023/04/05 09:22:01;;;;;;;;;;;;;;;21.94;31.47;102336.91;4975416;28;19910;-72
2023/04/05 09:24:45;;;;;;;;;;;;;;;21.99;31.56;102333.72;4967570;28;19946;-72
2023/04/05 09:27:11;;;;;;;;;;;;;;;22.05;31.60;102333.13;4970611;28;20322;-72
2023/04/05 09:29:37;;;;;;;;;;;;;;;22.10;31.40;102329.94;4971064;28;19986;-72
2023/04/05 09:32:02;;;;;;;;;;;;;;;22.13;31.52;102333.22;4960771;28;19920;-71
2023/04/05 09:34:28;;;;;;;;;;;;;;;22.17;31.33;102331.03;4969770;28;19918;-72
2023/04/05 09:36:54;;;;;;;;;;;;;;;22.22;31.34;102326.03;4961646;28;19918;-72
2023/04/05 09:39:22;;;;;;;;;;;;;;;22.26;31.13;102327.41;4970614;28;19926;-72
2023/04/05 09:42:02;;;;;;;;;;;;;;;22.30;30.82;102326.09;4970159;28;20588;-72
2023/04/05 09:44:28;;;;;;;;;;;;;;;22.37;30.78;102329.00;4969462;28;19925;-72
2023/04/05 09:46:54;;;;;;;;;;;;;;;22.43;30.89;102331.09;4964322;28;19958;-72
2023/04/05 09:49:32;;;;;;;;;;;;;;;22.46;30.95;102325.34;4974343;28;19921;-72
2023/04/05 09:51:57;;;;;;;;;;;;;;;22.51;30.94;102333.84;4961435;28;19924;-71
2023/04/05 09:54:23;;;;;;;;;;;;;;;22.54;30.71;102335.41;4965735;28;19918;-72
2023/04/05 09:56:57;;;;;;;;;;;;;;;22.57;31.00;102326.97;4972586;28;19914;-72
2023/04/05 09:59:22;;;;;;;;;;;;;;;22.60;30.65;102327.50;4956796;28;19953;-72
2023/04/05 10:01:50;;;;;;;;;;;;;;;22.62;30.86;102320.06;4973235;28;19925;-72
2023/04/05 10:04:15;;;;;;;;;;;;;;;22.66;30.70;102315.16;4969135;28;19914;-72
2023/04/05 10:06:41;;;;;;;;;;;;;;;22.70;30.60;102319.25;4969478;28;20013;-72
2023/04/05 10:09:06;;;;;;;;;;;;;;;22.71;30.57;102313.66;4969790;28;20352;-72
2023/04/05 10:11:33;;;;;;;;;;;;;;;22.73;30.47;102318.09;4969601;28;19919;-71
2023/04/05 10:13:59;;;;;;;;;;;;;;;22.73;30.83;102313.53;4962851;28;19961;-69
2023/04/05 10:16:25;;;;;;;;;;;;;;;22.71;30.98;102304.69;4972009;28;19910;-72
2023/04/05 10:18:51;;;;;;;;;;;;;;;22.70;31.15;102305.69;4967434;28;19915;-72
2023/04/05 10:21:20;;;;;;;;;;;;;;;22.68;31.19;102302.28;4963460;28;19930;-72
2023/04/05 10:23:45;;;;;;;;;;;;;;;22.66;31.24;102301.59;4966927;28;19910;-72
2023/04/05 10:26:20;;;;;;;;;;;;;;;22.65;31.24;102294.50;4965605;28;19926;-72
2023/04/05 10:28:46;;;;;;;;;;;;;;;22.64;31.30;102293.66;4973508;28;19910;-71
2023/04/05 10:31:15;;;;;;;;;;;;;;;22.62;31.55;102292.09;4967884;28;19921;-72
2023/04/05 10:33:46;;;;;;;;;;;;;;;22.61;31.85;102293.13;4967998;28;19924;-70
2023/04/05 10:36:21;;;;;;;;;;;;;;;22.65;31.99;102294.50;4968658;28;19973;-72
2023/04/05 10:38:47;;;;;;;;;;;;;;;22.74;31.85;102288.09;4966919;28;19934;-67
2023/04/05 10:41:13;;;;;;;;;;;;;;;22.82;31.63;102276.47;4962805;28;19910;-68
2023/04/05 10:43:42;;;;;;;;;;;;;;;22.87;31.89;102279.53;4968494;28;19971;-69
2023/04/05 10:46:07;;;;;;;;;;;;;;;22.93;31.79;102273.47;4967537;28;19918;-69
2023/04/05 10:48:36;;;;;;;;;;;;;;;23.00;31.91;102281.81;4961043;28;19921;-68
2023/04/05 10:51:02;;;;;;;;;;;;;;;23.05;31.87;102264.03;4974901;28;19914;-71
2023/04/05 10:53:28;;;;;;;;;;;;;;;23.05;31.74;102266.75;4970791;28;19914;-68
2023/04/05 10:55:53;;;;;;;;;;;;;;;23.08;31.95;102262.88;4976726;28;19918;-69
2023/04/05 10:58:19;;;;;;;;;;;;;;;23.11;31.75;102259.84;4964456;28;19911;-69
2023/04/05 11:00:44;;;;;;;;;;;;;;;23.11;31.91;102254.41;4963109;28;19922;-69
2023/04/05 11:03:10;;;;;;;;;;;;;;;23.13;32.09;102250.50;4969396;28;19934;-69
2023/04/05 11:05:36;;;;;;;;;;;;;;;23.11;32.23;102254.41;4967358;28;20381;-71
2023/04/05 11:08:07;;;;;;;;;;;;;;;23.07;31.58;102247.63;4964083;28;19910;-69
2023/04/05 11:10:34;;;;;;;;;;;;;;;22.97;32.57;102252.31;4965251;28;20406;-68
2023/04/05 11:12:59;;;;;;;;;;;;;;;22.92;32.47;102250.94;4967457;28;19917;-68
2023/04/05 11:15:24;;;;;;;;;;;;;;;22.86;32.68;102254.28;4961420;28;19918;-68
2023/04/05 11:18:00;;;;;;;;;;;;;;;22.81;33.15;102258.47;4974683;28;19945;-68
2023/04/05 11:20:25;;;;;;;;;;;;;;;22.79;33.31;102250.50;4957657;28;19914;-69
2023/04/05 11:22:53;;;;;;;;;;;;;;;22.80;33.09;102235.94;4967368;28;19910;-72
2023/04/05 11:25:21;;;;;;;;;;;;;;;22.83;33.38;102241.03;4967125;28;20402;-70
2023/04/05 11:27:47;;;;;;;;;;;;;;;22.80;33.44;102233.22;4960645;28;19915;-71
2023/04/05 11:30:12;;;;;;;;;;;;;;;22.74;33.34;102236.59;4970209;28;19915;-71
2023/04/05 11:32:44;;;;;;;;;;;;;;;22.71;33.40;102231.47;4963963;28;20410;-70
2023/04/05 11:35:13;;;;;;;;;;;;;;;22.66;33.49;102231.97;4961660;28;19993;-71
2023/04/05 11:37:57;;;;;;;;;;;;;;;22.65;33.68;102224.00;4963433;28;19935;-71
2023/04/05 11:40:23;;;;;;;;;;;;;;;22.61;33.75;102225.34;4966225;28;19910;-70
2023/04/05 11:42:56;;;;;;;;;;;;;;;22.59;34.01;102225.47;4964409;28;19941;-71
2023/04/05 11:45:22;;;;;;;;;;;;;;;22.56;33.97;102223.13;4969870;28;19924;-71
2023/04/05 11:47:47;;;;;;;;;;;;;;;22.55;33.89;102225.97;4960278;28;20429;-71
2023/04/05 11:50:12;;;;;;;;;;;;;;;22.55;33.86;102217.84;4971234;28;19917;-71
2023/04/05 11:52:37;;;;;;;;;;;;;;;22.55;34.21;102220.53;4966671;28;19942;-71
2023/04/05 11:55:04;;;;;;;;;;;;;;;22.54;34.22;102219.69;4959740;28;19915;-71
2023/04/05 11:57:30;;;;;;;;;;;;;;;22.53;33.93;102211.75;4970104;28;19914;-71
2023/04/05 11:59:55;;;;;;;;;;;;;;;22.51;34.03;102202.91;4965041;28;20005;-71
2023/04/05 12:02:20;;;;;;;;;;;;;;;22.50;34.28;102212.91;4964805;28;19917;-71
2023/04/05 12:04:52;;;;;;;;;;;;;;;22.51;34.42;102211.03;4963723;28;20353;-71
2023/04/05 12:07:18;;;;;;;;;;;;;;;22.52;34.39;102199.22;4976401;28;19914;-70
2023/04/05 12:10:00;;;;;;;;;;;;;;;22.52;34.32;102202.75;4963410;28;19916;-71
2023/04/05 12:12:25;;;;;;;;;;;;;;;22.53;34.51;102192.78;4969282;28;19938;-71
2023/04/05 12:14:50;;;;;;;;;;;;;;;22.55;34.06;102188.88;4960382;28;19910;-71
2023/04/05 12:17:15;;;;;;;;;;;;;;;22.54;34.31;102189.88;4970269;28;19914;-71
2023/04/05 12:19:41;;;;;;;;;;;;;;;22.54;34.50;102194.47;4965468;28;19942;-71
2023/04/05 12:22:06;;;;;;;;;;;;;;;22.54;34.51;102187.19;4958693;28;19910;-71
2023/04/05 12:24:31;;;;;;;;;;;;;;;22.54;34.74;102181.75;4969628;28;19922;-71
2023/04/05 12:26:56;;;;;;;;;;;;;;;22.53;34.40;102181.94;4959795;28;20415;-72
2023/04/05 12:29:22;;;;;;;;;;;;;;;22.53;34.75;102177.34;4970973;28;20003;-71
2023/04/05 12:31:49;;;;;;;;;;;;;;;22.56;34.50;102177.03;4971795;28;19914;-72